createdAt,value
2023-04-13T00:02:46.147Z,9.53
2023-04-13T00:05:52.311Z,9.52
2023-04-13T00:08:54.208Z,9.50
2023-04-13T00:11:57.603Z,9.47
2023-04-13T00:14:59.285Z,9.44
2023-04-13T00:18:01.129Z,9.39
2023-04-13T00:21:02.940Z,9.37
2023-04-13T00:24:04.978Z,9.36
2023-04-13T00:27:08.110Z,9.33
2023-04-13T00:30:12.148Z,9.29
2023-04-13T00:33:13.943Z,9.24
2023-04-13T00:36:16.080Z,9.20
2023-04-13T00:39:22.415Z,9.15
2023-04-13T00:42:24.823Z,9.11
2023-04-13T00:45:27.639Z,9.08
2023-04-13T00:48:29.638Z,9.07
2023-04-13T00:51:32.489Z,9.05
2023-04-13T00:54:35.109Z,9.04
2023-04-13T00:57:40.024Z,9.01
2023-04-13T01:00:42.590Z,8.98
2023-04-13T01:03:44.293Z,8.94
2023-04-13T01:07:12.402Z,8.90
2023-04-13T01:10:21.202Z,8.87
2023-04-13T01:13:29.727Z,8.82
2023-04-13T01:16:50.544Z,8.77
2023-04-13T01:19:59.460Z,8.74
2023-04-13T01:23:30.645Z,8.71
2023-04-13T01:26:49.572Z,8.68
2023-04-13T01:29:51.604Z,8.64
2023-04-13T01:32:55.108Z,8.61
2023-04-13T01:36:02.394Z,8.59
2023-04-13T01:39:05.076Z,8.59
2023-04-13T01:42:07.782Z,8.57
2023-04-13T01:45:19.465Z,8.59
2023-04-13T01:48:33.671Z,8.62
2023-04-13T01:51:45.387Z,8.62
2023-04-13T01:54:51.240Z,8.66
2023-04-13T01:57:56.265Z,8.71
2023-04-13T02:00:58.150Z,8.75
2023-04-13T02:04:02.220Z,8.80
2023-04-13T02:07:06.010Z,8.83
2023-04-13T02:10:11.408Z,8.87
2023-04-13T02:13:13.138Z,8.89
2023-04-13T02:16:15.179Z,8.91
2023-04-13T02:19:16.920Z,8.92
2023-04-13T02:22:18.578Z,8.95
2023-04-13T02:25:23.278Z,8.95
2023-04-13T02:28:27.118Z,8.96
2023-04-13T02:31:31.178Z,8.96
2023-04-13T02:34:33.424Z,8.97
2023-04-13T02:37:37.436Z,8.99
2023-04-13T02:40:39.279Z,8.99
2023-04-13T02:43:41.426Z,8.99
2023-04-13T02:46:43.471Z,9.01
2023-04-13T02:49:49.087Z,9.02
2023-04-13T02:53:01.707Z,9.04
2023-04-13T02:56:05.051Z,9.05
2023-04-13T02:59:06.882Z,9.05
2023-04-13T03:02:09.288Z,9.04
2023-04-13T03:05:12.370Z,9.05
2023-04-13T03:08:14.260Z,9.06
2023-04-13T03:11:25.685Z,9.08
2023-04-13T03:14:41.619Z,9.09
2023-04-13T03:17:44.939Z,9.09
2023-04-13T03:20:49.888Z,9.08
2023-04-13T03:23:52.541Z,9.05
2023-04-13T03:26:57.379Z,9.05
2023-04-13T03:30:04.910Z,9.03
2023-04-13T03:33:12.096Z,9.02
2023-04-13T03:36:14.569Z,9.02
2023-04-13T03:39:16.516Z,9.00
2023-04-13T03:42:18.306Z,8.99
2023-04-13T03:45:25.998Z,9.00
2023-04-13T03:48:28.623Z,9.01
2023-04-13T03:51:31.148Z,9.03
2023-04-13T03:54:34.634Z,9.06
2023-04-13T03:57:36.570Z,9.07
2023-04-13T04:00:40.690Z,9.07
2023-04-13T04:03:47.090Z,9.09
2023-04-13T04:06:48.919Z,9.10
2023-04-13T04:09:51.397Z,9.10
2023-04-13T04:12:53.679Z,9.11
2023-04-13T04:15:56.385Z,9.13
2023-04-13T04:18:58.210Z,9.14
2023-04-13T04:22:03.599Z,9.15
2023-04-13T04:25:08.233Z,9.17
2023-04-13T04:28:17.352Z,9.20
2023-04-13T04:31:21.003Z,9.23
2023-04-13T04:34:25.820Z,9.25
2023-04-13T04:37:27.517Z,9.27
2023-04-13T04:40:35.396Z,9.30
2023-04-13T04:43:38.544Z,9.33
2023-04-13T04:46:40.976Z,9.34
2023-04-13T04:49:45.364Z,9.37
2023-04-13T04:52:47.143Z,9.39
2023-04-13T04:55:52.762Z,9.42
2023-04-13T04:59:04.508Z,9.47
2023-04-13T05:02:12.539Z,9.52
2023-04-13T05:05:14.335Z,9.56
2023-04-13T05:08:16.130Z,9.61
2023-04-13T05:11:20.376Z,9.64
2023-04-13T05:14:22.316Z,9.67
2023-04-13T05:17:25.239Z,9.71
2023-04-13T05:20:27.981Z,9.74
2023-04-13T05:23:34.688Z,9.78
2023-04-13T05:26:42.634Z,9.83
2023-04-13T05:29:47.472Z,9.89
2023-04-13T05:32:51.157Z,10.02
2023-04-13T05:35:52.933Z,10.15
2023-04-13T05:38:58.499Z,10.22
2023-04-13T05:42:01.240Z,10.25
2023-04-13T05:45:09.019Z,10.28
2023-04-13T05:48:12.569Z,10.33
2023-04-13T05:51:17.533Z,10.38
2023-04-13T05:54:20.498Z,10.47
2023-04-13T05:57:23.576Z,10.55
2023-04-13T06:00:27.344Z,10.61
2023-04-13T06:03:34.187Z,10.69
2023-04-13T06:06:35.983Z,10.77
2023-04-13T06:09:37.807Z,10.85
2023-04-13T06:12:41.728Z,10.95
2023-04-13T06:15:43.454Z,11.08
2023-04-13T06:18:45.308Z,11.22
2023-04-13T06:21:47.009Z,11.39
2023-04-13T06:24:51.141Z,11.57
2023-04-13T06:27:53.798Z,11.66
2023-04-13T06:30:56.457Z,11.74
2023-04-13T06:33:58.332Z,11.79
2023-04-13T06:37:04.543Z,11.82
2023-04-13T06:40:14.321Z,11.85
2023-04-13T06:43:29.191Z,11.86
2023-04-13T06:46:57.464Z,11.85
2023-04-13T06:50:05.927Z,11.85
2023-04-13T06:53:07.880Z,11.95
2023-04-13T06:56:09.969Z,12.02
2023-04-13T06:59:12.231Z,12.07
2023-04-13T07:02:14.109Z,12.07
2023-04-13T07:05:16.611Z,12.10
2023-04-13T07:08:19.486Z,12.12
2023-04-13T07:11:24.112Z,12.17
2023-04-13T07:14:25.953Z,12.21
2023-04-13T07:17:28.096Z,12.24
2023-04-13T07:20:30.084Z,12.25
2023-04-13T07:23:33.425Z,12.24
2023-04-13T07:26:39.231Z,12.24
2023-04-13T07:29:41.227Z,12.24
2023-04-13T07:32:46.355Z,12.23
2023-04-13T07:35:49.695Z,12.36
2023-04-13T07:38:51.900Z,12.62
2023-04-13T07:41:54.272Z,12.83
2023-04-13T07:45:01.874Z,13.11
2023-04-13T07:48:05.319Z,13.38
2023-04-13T07:51:16.953Z,13.60
2023-04-13T07:54:19.048Z,13.84
2023-04-13T07:57:22.038Z,14.14
2023-04-13T08:00:29.444Z,14.39
2023-04-13T08:03:33.098Z,14.61
2023-04-13T08:06:36.467Z,14.81
2023-04-13T08:09:40.175Z,15.05
2023-04-13T08:12:41.956Z,15.30
2023-04-13T08:15:45.227Z,15.53
2023-04-13T08:18:47.521Z,15.72
2023-04-13T08:21:50.645Z,15.94
2023-04-13T08:24:52.771Z,16.12
2023-04-13T08:27:55.712Z,16.23
2023-04-13T08:30:58.139Z,16.24
2023-04-13T08:34:00.194Z,16.30
2023-04-13T08:37:02.183Z,16.39
2023-04-13T08:40:07.182Z,16.54
2023-04-13T08:43:09.182Z,16.68
2023-04-13T08:46:18.875Z,16.84
2023-04-13T08:49:22.807Z,17.00
2023-04-13T08:52:48.545Z,17.16
2023-04-13T08:55:54.100Z,17.28
2023-04-13T08:59:08.573Z,17.32
2023-04-13T09:02:11.309Z,17.34
2023-04-13T09:05:23.261Z,17.41
2023-04-13T09:08:36.686Z,17.41
2023-04-13T09:11:41.593Z,17.41
2023-04-13T09:14:43.450Z,17.47
2023-04-13T09:17:45.677Z,17.51
2023-04-13T09:20:57.299Z,17.38
2023-04-13T09:23:59.178Z,17.28
2023-04-13T09:27:02.068Z,17.25
2023-04-13T09:30:04.984Z,17.18
2023-04-13T09:33:09.781Z,17.00
2023-04-13T09:36:16.377Z,16.81
2023-04-13T09:39:26.998Z,16.62
2023-04-13T09:42:28.783Z,16.46
2023-04-13T09:45:35.861Z,16.45
2023-04-13T09:48:37.859Z,16.68
2023-04-13T09:51:41.395Z,17.02
2023-04-13T09:54:43.344Z,17.39
2023-04-13T09:57:45.239Z,17.52
2023-04-13T10:00:47.081Z,17.55
2023-04-13T10:03:49.566Z,17.81
2023-04-13T10:06:51.902Z,18.06
2023-04-13T10:09:53.842Z,18.25
2023-04-13T10:13:04.506Z,18.42
2023-04-13T10:16:24.087Z,18.58
2023-04-13T10:19:59.161Z,18.78
2023-04-13T10:23:05.953Z,18.98
2023-04-13T10:26:09.005Z,19.15
2023-04-13T10:29:13.879Z,19.35
2023-04-13T10:32:26.916Z,19.49
2023-04-13T10:46:10.584Z,18.91
2023-04-13T10:49:12.813Z,18.71
2023-04-13T10:52:15.241Z,18.71
2023-04-13T10:55:19.235Z,18.87
2023-04-13T10:58:22.415Z,19.08
2023-04-13T11:01:24.948Z,19.23
2023-04-13T11:04:26.843Z,19.47
2023-04-13T11:07:29.177Z,19.68
2023-04-13T11:10:31.811Z,19.90
2023-04-13T11:13:33.627Z,20.11
2023-04-13T11:16:45.464Z,20.27
2023-04-13T11:19:54.971Z,20.27
2023-04-13T11:22:57.191Z,20.13
2023-04-13T11:26:02.414Z,19.90
2023-04-13T11:29:04.537Z,19.63
2023-04-13T11:32:06.642Z,19.36
2023-04-13T11:35:10.144Z,19.08
2023-04-13T11:38:19.747Z,18.77
2023-04-13T11:41:21.609Z,18.51
2023-04-13T11:44:24.336Z,18.28
2023-04-13T11:47:26.662Z,18.07
2023-04-13T11:50:29.096Z,17.88
2023-04-13T11:53:32.963Z,17.73
2023-04-13T11:56:35.158Z,17.59
2023-04-13T11:59:38.052Z,17.44
2023-04-13T12:02:59.568Z,17.28
2023-04-13T12:06:04.104Z,17.11
2023-04-13T12:09:14.975Z,16.97
2023-04-13T12:15:43.534Z,16.69
2023-04-13T12:18:52.489Z,16.59
2023-04-13T12:21:57.192Z,16.53
2023-04-13T12:24:59.728Z,16.50
2023-04-13T12:28:02.680Z,16.47
2023-04-13T12:31:12.093Z,16.46
2023-04-13T12:34:13.933Z,16.44
2023-04-13T12:37:15.770Z,16.41
2023-04-13T12:40:17.871Z,16.37
2023-04-13T12:43:19.671Z,16.32
2023-04-13T12:46:21.579Z,16.25
2023-04-13T12:49:23.466Z,16.18
2023-04-13T12:52:27.942Z,16.12
2023-04-13T12:55:30.087Z,16.06
2023-04-13T12:58:31.946Z,16.02
2023-04-13T13:01:36.769Z,15.96
2023-04-13T13:04:38.625Z,15.91
2023-04-13T13:07:40.407Z,15.87
2023-04-13T13:10:42.200Z,15.82
2023-04-13T13:13:43.966Z,15.77
2023-04-13T13:16:46.130Z,15.71
2023-04-13T13:19:47.852Z,15.66
2023-04-13T13:22:49.668Z,15.59
2023-04-13T13:26:04.387Z,15.51
2023-04-13T13:29:13.279Z,15.41
2023-04-13T13:32:16.282Z,15.36
2023-04-13T13:35:19.192Z,15.30
2023-04-13T13:38:21.024Z,15.25
2023-04-13T13:41:24.794Z,15.21
2023-04-13T13:44:26.632Z,15.18
2023-04-13T13:47:28.675Z,15.16
2023-04-13T13:50:30.666Z,15.12
2023-04-13T13:53:34.189Z,15.09
2023-04-13T13:56:36.020Z,15.05
2023-04-13T13:59:38.028Z,15.01
2023-04-13T14:02:40.262Z,14.99
2023-04-13T14:05:45.030Z,14.97
2023-04-13T14:08:52.035Z,14.93
2023-04-13T14:11:54.163Z,14.95
2023-04-13T14:14:55.975Z,14.99
2023-04-13T14:21:56.210Z,14.87
2023-04-13T14:24:58.372Z,14.80
2023-04-13T14:28:00.520Z,14.74
2023-04-13T14:31:02.926Z,14.67
2023-04-13T14:34:04.725Z,14.61
2023-04-13T14:37:06.995Z,14.54
2023-04-13T14:40:13.852Z,14.45
2023-04-13T14:43:16.129Z,14.39
2023-04-13T14:46:18.141Z,14.35
2023-04-13T14:49:19.982Z,14.31
2023-04-13T14:52:22.129Z,14.26
2023-04-13T14:55:24.032Z,14.23
2023-04-13T14:58:25.986Z,14.17
2023-04-13T15:01:27.875Z,14.12
2023-04-13T15:04:30.177Z,14.09
2023-04-13T15:07:32.114Z,14.05
2023-04-13T15:10:34.525Z,14.02
2023-04-13T15:13:37.564Z,14.02
2023-04-13T15:16:39.373Z,14.01
2023-04-13T15:19:41.436Z,14.02
2023-04-13T15:22:43.434Z,14.00
2023-04-13T15:25:45.989Z,13.97
2023-04-13T15:28:47.964Z,13.95
2023-04-13T15:31:51.121Z,13.92
2023-04-13T15:34:55.745Z,13.90
2023-04-13T15:38:01.462Z,13.86
2023-04-13T15:41:03.151Z,13.83
2023-04-13T15:44:05.032Z,13.81
2023-04-13T15:47:06.865Z,13.78
2023-04-13T15:50:09.039Z,13.73
2023-04-13T15:53:10.710Z,13.68
2023-04-13T15:56:12.530Z,13.63
2023-04-13T15:59:14.280Z,13.56
2023-04-13T16:02:16.152Z,13.50
2023-04-13T16:05:19.053Z,13.44
2023-04-13T16:08:21.033Z,13.38
2023-04-13T16:11:22.667Z,13.35
2023-04-13T16:14:24.705Z,13.32
2023-04-13T16:17:30.416Z,13.28
2023-04-13T16:20:33.046Z,13.25
2023-04-13T16:23:35.032Z,13.23
2023-04-13T16:26:37.293Z,13.20
2023-04-13T16:29:41.008Z,13.19
2023-04-13T16:32:44.417Z,13.18
2023-04-13T16:35:46.151Z,13.17
2023-04-13T16:38:47.859Z,13.17
2023-04-13T16:41:50.785Z,13.15
2023-04-13T16:44:52.797Z,13.12
2023-04-13T16:47:55.139Z,13.08
2023-04-13T16:50:57.777Z,13.04
2023-04-13T16:53:59.625Z,12.99
2023-04-13T16:57:01.460Z,12.95
2023-04-13T17:00:08.881Z,12.92
2023-04-13T17:03:10.878Z,12.89
2023-04-13T17:06:12.815Z,12.86
2023-04-13T17:09:14.486Z,12.84
2023-04-13T17:12:16.214Z,12.84
2023-04-13T17:15:19.039Z,12.82
2023-04-13T17:18:20.933Z,12.78
2023-04-13T17:21:22.884Z,12.75
2023-04-13T17:24:24.797Z,12.71
2023-04-13T17:27:26.538Z,12.68
2023-04-13T17:30:31.680Z,12.65
2023-04-13T17:33:33.384Z,12.63
2023-04-13T17:36:35.025Z,12.61
2023-04-13T17:39:36.953Z,12.59
2023-04-13T17:42:38.724Z,12.57
2023-04-13T17:45:41.028Z,12.54
2023-04-13T17:48:42.802Z,12.53
2023-04-13T17:51:46.917Z,12.50
2023-04-13T17:54:48.669Z,12.50
2023-04-13T17:57:50.394Z,12.48
2023-04-13T18:00:52.164Z,12.47
2023-04-13T18:03:54.095Z,12.46
2023-04-13T18:06:56.163Z,12.44
2023-04-13T18:09:57.992Z,12.43
2023-04-13T18:13:00.383Z,12.42
2023-04-13T18:16:02.680Z,12.41
2023-04-13T18:19:04.528Z,12.40
2023-04-13T18:22:06.301Z,12.38
2023-04-13T18:25:09.031Z,12.37
2023-04-13T18:28:11.035Z,12.35
2023-04-13T18:31:12.834Z,12.36
2023-04-13T18:34:14.613Z,12.35
2023-04-13T18:37:16.350Z,12.35
2023-04-13T18:40:18.058Z,12.33
2023-04-13T18:43:19.890Z,12.34
2023-04-13T18:46:21.702Z,12.32
2023-04-13T18:49:23.505Z,12.32
2023-04-13T18:52:25.570Z,12.31
2023-04-13T18:55:28.042Z,12.32
2023-04-13T18:58:29.802Z,12.31
2023-04-13T19:01:31.832Z,12.31
2023-04-13T19:04:34.538Z,12.29
2023-04-13T19:07:36.439Z,12.30
2023-04-13T19:10:38.472Z,12.30
2023-04-13T19:13:40.158Z,12.29
2023-04-13T19:16:44.877Z,12.30
2023-04-13T19:19:48.026Z,12.29
2023-04-13T19:22:52.712Z,12.28
2023-04-13T19:25:54.517Z,12.30
2023-04-13T19:28:56.248Z,12.29
2023-04-13T19:31:58.460Z,12.28
2023-04-13T19:35:00.231Z,12.28
2023-04-13T19:38:01.971Z,12.26
2023-04-13T19:41:03.684Z,12.26
2023-04-13T19:44:07.220Z,12.26
2023-04-13T19:47:08.923Z,12.26
2023-04-13T19:50:13.700Z,12.25
2023-04-13T19:53:15.524Z,12.24
2023-04-13T19:56:17.764Z,12.24
2023-04-13T19:59:19.480Z,12.24
2023-04-13T20:02:21.533Z,12.24
2023-04-13T20:05:24.189Z,12.23
2023-04-13T20:08:26.040Z,12.21
2023-04-13T20:11:27.705Z,12.20
2023-04-13T20:14:29.627Z,12.18
2023-04-13T20:17:31.439Z,12.18
2023-04-13T20:20:34.870Z,12.16
2023-04-13T20:23:37.015Z,12.15
2023-04-13T20:26:39.152Z,12.14
2023-04-13T20:29:41.100Z,12.14
2023-04-13T20:32:42.853Z,12.14
2023-04-13T20:35:44.705Z,12.12
2023-04-13T20:38:47.621Z,12.12
2023-04-13T20:41:54.158Z,12.09
2023-04-13T20:44:58.897Z,12.10
2023-04-13T20:51:23.171Z,12.09
2023-04-13T20:54:24.812Z,12.09
2023-04-13T20:57:26.933Z,12.10
2023-04-13T21:00:29.054Z,12.10
2023-04-13T21:03:31.262Z,12.08
2023-04-13T21:06:35.420Z,12.06
2023-04-13T21:09:37.596Z,12.06
2023-04-13T21:12:39.312Z,12.04
2023-04-13T21:15:44.747Z,12.02
2023-04-13T21:18:47.217Z,12.01
2023-04-13T21:21:48.923Z,11.99
2023-04-13T21:24:50.661Z,11.99
2023-04-13T21:27:52.376Z,11.98
2023-04-13T21:30:54.202Z,11.99
2023-04-13T21:33:55.950Z,11.99
2023-04-13T21:36:59.849Z,11.98
2023-04-13T21:40:01.845Z,11.97
2023-04-13T21:43:03.724Z,11.96
2023-04-13T21:46:05.470Z,11.96
2023-04-13T21:49:07.229Z,11.96
2023-04-13T21:52:09.409Z,11.97
2023-04-13T21:55:17.022Z,11.97
2023-04-13T21:58:19.047Z,11.96
2023-04-13T22:01:20.844Z,11.95
2023-04-13T22:04:22.856Z,11.96
2023-04-13T22:07:38.999Z,11.97
2023-04-13T22:10:43.766Z,11.95
2023-04-13T22:13:45.550Z,11.94
2023-04-13T22:16:48.739Z,11.92
2023-04-13T22:19:50.624Z,11.92
2023-04-13T22:22:52.310Z,11.92
2023-04-13T22:26:00.838Z,11.90
2023-04-13T22:29:02.810Z,11.89
2023-04-13T22:32:05.032Z,11.88
2023-04-13T22:35:07.114Z,11.87
2023-04-13T22:38:08.863Z,11.87
2023-04-13T22:41:10.642Z,11.86
2023-04-13T22:44:12.445Z,11.85
2023-04-13T22:47:14.196Z,11.85
2023-04-13T22:50:16.102Z,11.86
2023-04-13T22:53:17.780Z,11.87
2023-04-13T22:56:19.467Z,11.86
2023-04-13T22:59:21.234Z,11.86
2023-04-13T23:02:23.046Z,11.85
2023-04-13T23:05:24.834Z,11.85
2023-04-13T23:08:28.635Z,11.85
2023-04-13T23:11:30.467Z,11.83
2023-04-13T23:14:32.313Z,11.82
2023-04-13T23:17:34.250Z,11.82
2023-04-13T23:20:36.069Z,11.82
2023-04-13T23:23:38.729Z,11.80
2023-04-13T23:26:40.458Z,11.80
2023-04-13T23:29:44.910Z,11.80
2023-04-13T23:32:46.699Z,11.79
2023-04-13T23:35:51.856Z,11.79
2023-04-13T23:38:53.725Z,11.79
2023-04-13T23:41:55.508Z,11.80
2023-04-13T23:44:57.210Z,11.79
2023-04-13T23:47:58.947Z,11.79
2023-04-13T23:51:00.793Z,11.78
2023-04-13T23:54:02.563Z,11.79
2023-04-13T23:57:04.258Z,11.77
